Time;durP1;ratioP1;P1;durP2;ratioP2;P2;SDS_P1;SDS_P2;PMS_P1;PMS_P2;Temp;Humidity;BMP_temperature;BMP_pressure;BME280_temperature;BME280_humidity;BME280_pressure;Samples;Min_cycle;Max_cycle;Signal;HPM_P1;HPM_P2
2023/07/21 00:01:07;;;;;;;0.90;0.90;;;12.60;99.90;;;;;;5087980;28;20052;-62
2023/07/21 00:03:33;;;;;;;1.77;1.10;;;12.60;99.90;;;;;;5068821;28;20043;-63
2023/07/21 00:06:00;;;;;;;2.22;2.00;;;12.50;99.90;;;;;;5072479;28;20044;-62
2023/07/21 00:08:28;;;;;;;6.50;1.08;;;12.50;99.90;;;;;;5083451;28;20418;-62
2023/07/21 00:10:58;;;;;;;2.17;1.10;;;12.50;99.90;;;;;;5073989;28;20139;-62
2023/07/21 00:13:25;;;;;;;1.13;1.00;;;12.40;99.90;;;;;;5087666;28;20517;-62
2023/07/21 00:15:52;;;;;;;1.40;1.30;;;12.40;99.90;;;;;;5088913;28;20055;-63
2023/07/21 00:18:19;;;;;;;2.00;1.38;;;12.50;99.90;;;;;;5082874;28;20127;-62
2023/07/21 00:20:45;;;;;;;2.63;1.27;;;12.40;99.90;;;;;;5079120;28;20044;-62
2023/07/21 00:23:12;;;;;;;1.85;1.55;;;12.50;99.90;;;;;;5088849;28;20044;-62
2023/07/21 00:25:39;;;;;;;1.52;1.15;;;12.50;99.90;;;;;;5070035;28;20040;-62
2023/07/21 00:28:05;;;;;;;2.67;1.17;;;12.50;99.90;;;;;;5085714;28;20052;-62
2023/07/21 00:30:31;;;;;;;3.03;1.40;;;12.50;99.90;;;;;;5077231;28;20043;-62
2023/07/21 00:32:57;;;;;;;2.72;1.40;;;12.50;99.90;;;;;;5087380;28;20478;-62
2023/07/21 00:35:23;;;;;;;3.03;1.52;;;12.40;99.90;;;;;;5083817;28;20051;-62
2023/07/21 00:37:49;;;;;;;3.97;1.63;;;12.40;99.90;;;;;;5079573;28;20133;-62
2023/07/21 00:40:23;;;;;;;2.20;1.13;;;12.50;99.90;;;;;;5089713;28;20044;-62
2023/07/21 00:42:49;;;;;;;3.03;1.52;;;12.40;99.90;;;;;;5087878;28;20506;-62
2023/07/21 00:45:15;;;;;;;3.38;1.40;;;12.40;99.90;;;;;;5089547;28;20058;-62
2023/07/21 00:47:41;;;;;;;4.93;1.30;;;12.40;99.90;;;;;;5087827;28;20050;-62
2023/07/21 00:50:14;;;;;;;2.60;1.40;;;12.40;99.90;;;;;;5089573;28;20044;-62
2023/07/21 00:52:40;;;;;;;2.40;1.55;;;12.40;99.90;;;;;;5089220;28;20071;-62
2023/07/21 00:55:07;;;;;;;2.10;1.30;;;12.40;99.90;;;;;;5087909;28;20063;-62
2023/07/21 00:57:34;;;;;;;2.83;1.30;;;12.40;99.90;;;;;;5089015;28;20490;-62
2023/07/21 01:00:00;;;;;;;1.58;1.15;;;12.40;99.90;;;;;;5080164;28;20054;-62
2023/07/21 01:02:27;;;;;;;1.85;1.27;;;12.40;99.90;;;;;;5087721;28;20055;-62
2023/07/21 01:04:54;;;;;;;4.88;1.00;;;12.40;99.90;;;;;;5087776;28;20119;-62
2023/07/21 01:07:20;;;;;;;1.20;1.10;;;12.40;99.90;;;;;;5088793;28;20548;-62
2023/07/21 01:09:47;;;;;;;1.35;1.20;;;12.30;99.90;;;;;;5079650;28;20080;-62
2023/07/21 01:12:13;;;;;;;1.80;1.10;;;12.30;99.90;;;;;;5082467;28;20047;-62
2023/07/21 01:14:39;;;;;;;1.42;1.33;;;12.30;99.90;;;;;;5082305;28;20045;-62
2023/07/21 01:17:08;;;;;;;6.50;1.40;;;12.30;99.90;;;;;;5081694;28;20055;-62
2023/07/21 01:19:36;;;;;;;3.42;1.52;;;12.30;99.90;;;;;;5088649;28;20494;-62
2023/07/21 01:22:24;;;;;;;2.05;1.17;;;12.20;99.90;;;;;;5085594;28;20090;-62
2023/07/21 01:24:50;;;;;;;1.45;0.85;;;12.20;99.90;;;;;;5074258;28;20036;-62
2023/07/21 01:27:24;;;;;;;4.22;1.30;;;12.20;99.90;;;;;;5088737;28;20040;-62
2023/07/21 01:29:51;;;;;;;4.95;1.27;;;12.10;99.90;;;;;;5087466;28;20174;-62
2023/07/21 01:32:21;;;;;;;4.53;1.33;;;12.10;99.90;;;;;;5089029;28;20452;-62
2023/07/21 01:34:47;;;;;;;2.10;1.15;;;12.10;99.90;;;;;;5086164;28;20038;-62
2023/07/21 01:37:15;;;;;;;1.25;1.15;;;12.00;99.90;;;;;;5070130;28;20229;-62
2023/07/21 01:39:41;;;;;;;1.20;1.10;;;11.90;99.90;;;;;;5087095;28;20523;-62
2023/07/21 01:42:08;;;;;;;1.77;1.45;;;11.90;99.90;;;;;;5087795;28;20074;-62
2023/07/21 01:44:34;;;;;;;1.40;1.30;;;11.90;99.90;;;;;;5087932;28;20047;-62
2023/07/21 01:47:00;;;;;;;3.15;1.35;;;11.90;99.90;;;;;;5086603;28;20051;-62
2023/07/21 01:49:26;;;;;;;1.85;0.90;;;11.80;99.90;;;;;;5070506;28;20048;-62
2023/07/21 01:51:57;;;;;;;1.35;1.25;;;11.80;99.90;;;;;;5086195;28;20047;-62
2023/07/21 01:54:42;;;;;;;1.55;1.25;;;11.80;99.90;;;;;;5088597;28;20096;-62
2023/07/21 01:57:13;;;;;;;2.05;1.60;;;11.80;99.90;;;;;;5087213;28;20050;-62
2023/07/21 01:59:43;;;;;;;3.00;1.40;;;11.80;99.90;;;;;;5087409;28;20556;-62
2023/07/21 02:02:10;;;;;;;3.70;1.70;;;11.70;99.90;;;;;;5087361;28;20392;-62
2023/07/21 02:04:38;;;;;;;2.10;1.33;;;11.70;99.90;;;;;;5086710;28;20406;-62
2023/07/21 02:07:05;;;;;;;1.23;1.13;;;11.70;99.90;;;;;;5073591;28;20463;-62
2023/07/21 02:09:31;;;;;;;2.95;1.20;;;11.70;99.90;;;;;;5079144;28;20036;-62
2023/07/21 02:11:58;;;;;;;1.23;1.10;;;11.70;99.90;;;;;;5079560;28;20116;-62
2023/07/21 02:14:23;;;;;;;3.15;1.00;;;11.70;99.90;;;;;;5087132;28;20046;-62
2023/07/21 02:16:49;;;;;;;1.33;1.08;;;11.70;99.90;;;;;;5087560;28;20040;-62
2023/07/21 02:19:15;;;;;;;7.20;1.75;;;11.60;99.90;;;;;;5086151;28;20524;-62
2023/07/21 02:21:41;;;;;;;2.08;1.50;;;11.60;99.90;;;;;;5086485;28;20047;-62
2023/07/21 02:24:07;;;;;;;2.90;1.40;;;11.60;99.90;;;;;;5085883;28;20044;-62
2023/07/21 02:26:33;;;;;;;1.15;0.95;;;11.60;99.90;;;;;;5086464;28;20044;-62
2023/07/21 02:28:59;;;;;;;1.38;1.20;;;11.60;99.90;;;;;;5069298;28;20410;-62
2023/07/21 02:31:24;;;;;;;2.55;1.15;;;11.60;99.90;;;;;;5086659;28;20073;-62
2023/07/21 02:33:50;;;;;;;5.50;1.40;;;11.50;99.90;;;;;;5087502;28;20068;-62
2023/07/21 02:36:16;;;;;;;2.45;1.30;;;11.50;99.90;;;;;;5086175;28;20055;-62
2023/07/21 02:38:42;;;;;;;1.10;1.00;;;11.40;99.90;;;;;;5087123;28;20066;-62
2023/07/21 02:41:09;;;;;;;1.33;1.20;;;11.30;99.90;;;;;;5087149;28;20477;-62
2023/07/21 02:43:35;;;;;;;3.80;1.38;;;11.30;99.90;;;;;;5086131;28;20103;-61
2023/07/21 02:46:01;;;;;;;1.30;0.95;;;11.30;99.90;;;;;;5087240;28;20091;-62
2023/07/21 02:48:29;;;;;;;3.78;1.13;;;11.30;99.90;;;;;;5086120;28;20047;-62
2023/07/21 02:51:00;;;;;;;2.10;1.77;;;11.30;99.90;;;;;;5087692;28;20036;-62
2023/07/21 02:53:26;;;;;;;4.60;1.08;;;11.20;99.90;;;;;;5086451;28;20123;-61
2023/07/21 02:55:52;;;;;;;4.47;1.20;;;11.10;99.90;;;;;;5086641;28;20593;-62
2023/07/21 02:58:19;;;;;;;2.63;1.02;;;11.10;99.90;;;;;;5088059;28;20131;-62
2023/07/21 03:00:45;;;;;;;4.20;2.33;;;11.10;99.90;;;;;;5089547;28;20047;-62
2023/07/21 03:03:15;;;;;;;1.98;1.15;;;11.10;99.90;;;;;;5084678;28;20341;-62
2023/07/21 03:05:41;;;;;;;1.40;1.23;;;11.10;99.90;;;;;;5074821;28;20040;-61
2023/07/21 03:08:08;;;;;;;1.45;1.30;;;11.10;99.90;;;;;;5091259;28;20123;-62
2023/07/21 03:10:34;;;;;;;2.80;1.63;;;11.10;99.90;;;;;;5087688;28;20044;-62
2023/07/21 03:12:59;;;;;;;1.70;1.45;;;11.10;99.90;;;;;;5090895;28;20496;-62
2023/07/21 03:15:25;;;;;;;2.17;1.42;;;11.10;99.90;;;;;;5091083;28;20414;-61
2023/07/21 03:17:51;;;;;;;2.90;1.52;;;11.10;99.90;;;;;;5088598;28;20040;-62
2023/07/21 03:20:16;;;;;;;6.75;1.52;;;11.00;99.90;;;;;;5090677;28;20052;-61
2023/07/21 03:22:43;;;;;;;2.88;1.83;;;11.00;99.90;;;;;;5088576;28;20085;-61
2023/07/21 03:25:10;;;;;;;5.68;1.80;;;11.00;99.90;;;;;;5090454;28;20502;-61
2023/07/21 03:27:38;;;;;;;2.35;1.90;;;11.00;99.90;;;;;;5089919;28;20060;-62
2023/07/21 03:30:05;;;;;;;4.35;2.20;;;11.00;99.90;;;;;;5089965;28;20079;-62
2023/07/21 03:32:31;;;;;;;2.55;1.67;;;11.00;99.90;;;;;;5088990;28;20051;-61
2023/07/21 03:34:57;;;;;;;7.43;2.20;;;11.00;99.90;;;;;;5090107;28;20051;-62
2023/07/21 03:37:26;;;;;;;4.18;1.90;;;11.10;99.90;;;;;;5090099;28;20540;-61
2023/07/21 03:39:52;;;;;;;4.93;2.22;;;11.10;99.90;;;;;;5089296;28;20425;-62
2023/07/21 03:42:18;;;;;;;2.70;2.08;;;11.10;99.90;;;;;;5090349;28;20505;-62
2023/07/21 03:44:47;;;;;;;1.90;1.70;;;11.10;99.90;;;;;;5089023;28;20559;-62
2023/07/21 03:47:15;;;;;;;7.00;2.08;;;11.10;99.90;;;;;;5089231;28;20082;-62
2023/07/21 03:49:41;;;;;;;6.75;2.20;;;11.10;99.90;;;;;;5089644;28;20052;-62
2023/07/21 03:52:07;;;;;;;4.07;2.05;;;11.10;99.90;;;;;;5088101;28;20062;-61
2023/07/21 03:54:33;;;;;;;6.93;2.15;;;11.20;99.90;;;;;;5090334;28;20040;-62
2023/07/21 03:56:59;;;;;;;6.43;2.50;;;11.20;99.90;;;;;;5087963;28;20036;-62
2023/07/21 03:59:25;;;;;;;6.15;1.98;;;11.20;99.90;;;;;;5090080;28;20052;-62
2023/07/21 04:01:51;;;;;;;3.55;1.98;;;11.20;99.90;;;;;;5089468;28;20134;-61
2023/07/21 04:04:16;;;;;;;7.88;2.75;;;11.20;99.90;;;;;;5090284;28;20189;-61
2023/07/21 04:06:43;;;;;;;6.65;2.75;;;11.30;99.90;;;;;;5071079;28;20088;-62
2023/07/21 04:09:12;;;;;;;8.68;2.88;;;11.40;99.90;;;;;;5085029;28;20048;-61
2023/07/21 04:11:38;;;;;;;6.57;2.30;;;11.50;99.90;;;;;;5077925;28;20052;-62
2023/07/21 04:14:03;;;;;;;5.35;2.65;;;11.60;99.90;;;;;;5089261;28;20122;-61
2023/07/21 04:16:30;;;;;;;5.93;2.47;;;11.60;99.90;;;;;;5089904;28;20497;-61
2023/07/21 04:18:56;;;;;;;4.63;2.50;;;11.60;99.90;;;;;;5088700;28;20040;-61
2023/07/21 04:21:22;;;;;;;8.48;3.00;;;11.60;99.90;;;;;;5089332;28;20506;-61
2023/07/21 04:23:48;;;;;;;3.90;2.58;;;11.70;99.90;;;;;;5089034;28;20047;-61
2023/07/21 04:26:14;;;;;;;6.28;2.80;;;11.70;99.90;;;;;;5089496;28;20059;-62
2023/07/21 04:28:41;;;;;;;7.38;2.58;;;11.70;99.90;;;;;;5089371;28;20123;-61
2023/07/21 04:31:08;;;;;;;11.90;3.13;;;11.90;99.90;;;;;;5087171;28;20044;-62
2023/07/21 04:33:35;;;;;;;9.13;2.92;;;11.90;99.90;;;;;;5089257;28;20444;-62
2023/07/21 04:36:02;;;;;;;9.77;2.78;;;11.90;99.90;;;;;;5088098;28;20044;-62
2023/07/21 04:38:28;;;;;;;6.30;2.53;;;11.90;99.90;;;;;;5089593;28;20042;-61
2023/07/21 04:40:54;;;;;;;4.88;2.92;;;12.00;99.90;;;;;;5087948;28;20101;-62
2023/07/21 04:43:20;;;;;;;9.85;2.90;;;12.00;99.90;;;;;;5089325;28;20082;-62
2023/07/21 04:45:46;;;;;;;6.25;3.22;;;12.10;99.90;;;;;;5088424;28;20044;-62
2023/07/21 04:48:12;;;;;;;15.60;3.05;;;12.10;99.90;;;;;;5087530;28;20051;-62
2023/07/21 04:50:42;;;;;;;3.60;2.80;;;12.30;99.90;;;;;;5089597;28;20051;-62
2023/07/21 04:53:08;;;;;;;11.20;3.25;;;12.30;99.90;;;;;;5088273;28;20054;-62
2023/07/21 04:55:34;;;;;;;10.38;2.85;;;12.40;99.90;;;;;;5087531;28;20475;-62
2023/07/21 04:58:01;;;;;;;17.67;3.20;;;12.40;99.90;;;;;;5088453;28;20048;-61
2023/07/21 05:00:27;;;;;;;8.02;3.20;;;12.50;99.90;;;;;;5089005;28;20036;-62
2023/07/21 05:02:53;;;;;;;11.20;2.97;;;12.60;99.90;;;;;;5088313;28;20406;-61
2023/07/21 05:05:19;;;;;;;7.93;2.55;;;12.70;99.90;;;;;;5088225;28;20115;-62
2023/07/21 05:07:45;;;;;;;17.02;3.22;;;12.70;99.90;;;;;;5087266;28;20067;-61
2023/07/21 05:10:10;;;;;;;17.33;4.07;;;12.80;99.90;;;;;;5076445;28;20123;-62
2023/07/21 05:12:36;;;;;;;14.77;3.90;;;12.90;99.90;;;;;;5086236;28;20405;-61
2023/07/21 05:15:02;;;;;;;7.38;3.53;;;12.90;99.90;;;;;;5087904;28;20040;-62
2023/07/21 05:17:28;;;;;;;14.05;2.80;;;13.00;99.90;;;;;;5088343;28;20138;-62
2023/07/21 05:19:54;;;;;;;9.60;2.80;;;13.10;99.90;;;;;;5087191;28;20056;-62
2023/07/21 05:22:19;;;;;;;12.82;3.67;;;13.10;99.90;;;;;;5074185;28;20433;-62
2023/07/21 05:24:45;;;;;;;9.88;2.55;;;13.20;99.90;;;;;;5087311;28;20054;-62
2023/07/21 05:27:11;;;;;;;8.48;2.85;;;13.30;99.90;;;;;;5088269;28;20632;-62
2023/07/21 05:29:37;;;;;;;6.28;2.63;;;13.50;99.90;;;;;;5088217;28;20043;-61
2023/07/21 05:32:05;;;;;;;8.00;2.75;;;13.60;99.90;;;;;;5087401;28;20036;-61
2023/07/21 05:34:32;;;;;;;4.55;2.42;;;13.70;99.90;;;;;;5088273;28;20055;-62
2023/07/21 05:36:59;;;;;;;5.47;2.85;;;13.90;99.90;;;;;;5087044;28;20056;-62
2023/07/21 05:39:31;;;;;;;9.68;2.60;;;14.00;99.90;;;;;;5087974;28;20097;-61
2023/07/21 05:41:58;;;;;;;4.28;2.33;;;14.10;99.90;;;;;;5087412;28;20479;-62
2023/07/21 05:44:24;;;;;;;5.25;2.15;;;14.20;99.90;;;;;;5086262;28;20048;-62
2023/07/21 05:46:50;;;;;;;5.40;2.92;;;14.30;99.90;;;;;;5086733;28;20082;-61
2023/07/21 05:49:16;;;;;;;2.58;1.80;;;14.40;99.90;;;;;;5085764;28;20189;-62
2023/07/21 05:51:43;;;;;;;2.85;2.20;;;14.50;99.90;;;;;;5086747;28;20036;-62
2023/07/21 05:54:08;;;;;;;3.47;2.03;;;14.60;99.90;;;;;;5086969;28;20036;-61
2023/07/21 05:56:34;;;;;;;5.43;2.45;;;14.70;99.90;;;;;;5086105;28;20059;-62
2023/07/21 05:59:00;;;;;;;4.57;2.40;;;14.80;99.90;;;;;;5087290;28;20043;-62
2023/07/21 06:01:27;;;;;;;4.55;1.85;;;14.80;99.90;;;;;;5080602;28;20153;-62
2023/07/21 06:03:53;;;;;;;4.72;2.03;;;14.90;99.90;;;;;;5086415;28;20059;-62
2023/07/21 06:06:18;;;;;;;5.38;1.80;;;15.00;99.90;;;;;;5086779;28;20494;-62
2023/07/21 06:08:44;;;;;;;5.82;1.83;;;15.10;99.90;;;;;;5086175;28;20032;-62
2023/07/21 06:11:10;;;;;;;5.72;1.77;;;15.10;99.90;;;;;;5072619;28;20040;-62
2023/07/21 06:13:36;;;;;;;5.95;2.45;;;15.20;99.90;;;;;;5087834;28;20055;-62
2023/07/21 06:16:01;;;;;;;3.42;1.83;;;15.30;99.90;;;;;;5086508;28;20127;-62
2023/07/21 06:18:27;;;;;;;4.32;1.75;;;15.40;99.90;;;;;;5085769;28;20177;-62
2023/07/21 06:20:53;;;;;;;7.68;1.45;;;15.40;99.90;;;;;;5083776;28;20123;-62
2023/07/21 06:23:19;;;;;;;15.07;1.92;;;15.50;99.90;;;;;;5075302;28;20048;-62
2023/07/21 06:25:45;;;;;;;8.73;1.98;;;15.50;99.90;;;;;;5087456;28;20351;-61
2023/07/21 06:28:12;;;;;;;16.60;2.60;;;15.60;99.90;;;;;;5086409;28;20040;-62
2023/07/21 06:30:38;;;;;;;20.23;2.00;;;15.70;99.90;;;;;;5087239;28;20482;-62
2023/07/21 06:33:05;;;;;;;9.55;1.90;;;15.80;99.90;;;;;;5068097;28;20054;-61
2023/07/21 06:35:31;;;;;;;6.05;1.58;;;15.80;99.90;;;;;;5087409;28;20040;-62
2023/07/21 06:37:57;;;;;;;7.97;1.52;;;15.90;99.90;;;;;;5083619;28;20056;-61
2023/07/21 06:40:23;;;;;;;4.32;1.60;;;16.10;99.90;;;;;;5075631;28;20436;-62
2023/07/21 06:42:49;;;;;;;1.52;1.10;;;16.20;99.90;;;;;;5086988;28;20040;-62
2023/07/21 06:45:16;;;;;;;4.45;1.52;;;16.40;99.90;;;;;;5072603;28;20406;-62
2023/07/21 06:47:42;;;;;;;4.20;1.52;;;16.50;99.90;;;;;;5087068;28;20040;-62
2023/07/21 06:50:09;;;;;;;1.30;1.10;;;16.50;99.90;;;;;;5086285;28;20081;-62
2023/07/21 06:52:34;;;;;;;1.48;1.25;;;16.60;99.90;;;;;;5087126;28;20054;-62
2023/07/21 06:55:01;;;;;;;5.93;1.38;;;16.60;99.90;;;;;;5084788;28;20390;-62
2023/07/21 06:57:28;;;;;;;2.58;1.35;;;16.70;99.90;;;;;;5087018;28;20506;-62
2023/07/21 06:59:54;;;;;;;2.10;0.90;;;16.80;99.90;;;;;;5084502;28;20562;-62
2023/07/21 07:02:20;;;;;;;3.13;1.00;;;16.70;99.90;;;;;;5076659;28;20055;-62
2023/07/21 07:04:48;;;;;;;3.20;0.95;;;16.80;99.90;;;;;;5069524;28;20048;-62
2023/07/21 07:07:15;;;;;;;1.48;0.93;;;16.80;99.90;;;;;;5075745;28;20040;-62
2023/07/21 07:09:41;;;;;;;4.97;1.17;;;17.00;99.90;;;;;;5066758;28;20039;-62
2023/07/21 07:12:08;;;;;;;2.28;1.13;;;17.10;99.90;;;;;;5085408;28;20151;-62
2023/07/21 07:14:34;;;;;;;0.40;0.40;;;17.20;97.70;;;;;;5087007;28;20133;-62
2023/07/21 07:17:00;;;;;;;2.92;1.30;;;17.40;98.30;;;;;;5085731;28;20180;-62
2023/07/21 07:19:26;;;;;;;1.10;0.60;;;17.50;97.50;;;;;;5086258;28;20055;-62
2023/07/21 07:21:51;;;;;;;1.70;0.90;;;17.70;96.70;;;;;;5084792;28;20040;-63
2023/07/21 07:24:19;;;;;;;2.67;1.10;;;17.90;95.40;;;;;;5065829;28;20047;-63
2023/07/21 07:26:45;;;;;;;4.32;0.80;;;18.10;90.80;;;;;;5086221;28;20055;-62
2023/07/21 07:29:10;;;;;;;1.08;0.88;;;18.10;82.70;;;;;;5067525;28;20383;-63
2023/07/21 07:31:37;;;;;;;1.83;0.77;;;18.20;80.80;;;;;;5074117;28;20129;-62
2023/07/21 07:34:06;;;;;;;1.42;0.88;;;18.10;76.80;;;;;;5074247;28;20486;-63
2023/07/21 07:36:32;;;;;;;1.58;1.13;;;18.10;71.40;;;;;;5073966;28;20059;-62
2023/07/21 07:38:57;;;;;;;2.63;1.42;;;18.10;75.70;;;;;;5075498;28;20106;-63
2023/07/21 07:41:23;;;;;;;4.68;1.30;;;18.20;78.60;;;;;;5070307;28;20421;-62
2023/07/21 07:43:49;;;;;;;0.95;0.95;;;18.30;74.10;;;;;;5069910;28;20036;-63
2023/07/21 07:46:17;;;;;;;2.13;1.08;;;18.60;71.50;;;;;;5070170;28;20067;-62
2023/07/21 07:48:44;;;;;;;3.53;1.20;;;18.90;72.80;;;;;;5069755;28;20503;-62
2023/07/21 07:51:10;;;;;;;0.80;0.80;;;19.40;69.00;;;;;;5067525;28;20101;-63
2023/07/21 07:53:36;;;;;;;2.55;1.08;;;19.70;39.50;;;;;;5070213;28;20099;-63
2023/07/21 07:56:03;;;;;;;1.92;1.25;;;19.80;32.20;;;;;;5068572;28;20505;-62
2023/07/21 07:58:29;;;;;;;3.13;0.98;;;19.60;22.70;;;;;;5079975;28;20044;-63
2023/07/21 08:00:56;;;;;;;1.83;1.35;;;19.90;29.30;;;;;;5071449;28;20028;-63
2023/07/21 08:03:22;;;;;;;2.60;0.70;;;20.20;27.90;;;;;;5081082;28;20048;-63
2023/07/21 08:05:49;;;;;;;3.40;0.60;;;20.60;20.30;;;;;;5069498;28;20322;-62
2023/07/21 08:08:15;;;;;;;2.22;0.50;;;21.00;16.80;;;;;;5077052;28;20502;-63
2023/07/21 08:10:41;;;;;;;1.73;0.68;;;21.30;3.20;;;;;;5068883;28;20120;-63
2023/07/21 08:13:08;;;;;;;3.45;0.90;;;21.70;1.40;;;;;;5088963;28;20112;-63
2023/07/21 08:15:33;;;;;;;3.60;0.70;;;22.00;1.00;;;;;;5070416;28;20080;-63
2023/07/21 08:17:59;;;;;;;2.13;0.68;;;21.90;1.00;;;;;;5088072;28;20866;-63
2023/07/21 08:20:25;;;;;;;0.73;0.60;;;21.70;1.00;;;;;;5080998;28;20070;-62
2023/07/21 08:22:51;;;;;;;2.88;0.70;;;21.50;1.00;;;;;;5069271;28;20372;-63
2023/07/21 08:25:18;;;;;;;0.50;0.40;;;21.20;1.00;;;;;;5076179;28;20036;-63
2023/07/21 08:27:45;;;;;;;0.50;0.40;;;20.80;1.00;;;;;;5075167;28;20098;-62
2023/07/21 08:30:11;;;;;;;1.50;0.40;;;20.40;1.00;;;;;;5081319;28;20037;-63
2023/07/21 08:32:40;;;;;;;0.65;0.40;;;20.20;1.00;;;;;;5083652;28;20048;-63
2023/07/21 08:35:07;;;;;;;3.28;0.60;;;20.20;1.00;;;;;;5077590;28;20113;-62
2023/07/21 08:37:33;;;;;;;1.80;0.50;;;20.30;1.00;;;;;;5083129;28;20040;-62
2023/07/21 08:39:59;;;;;;;0.52;0.30;;;20.60;1.00;;;;;;5070938;28;20060;-62
2023/07/21 08:42:26;;;;;;;4.47;0.60;;;20.90;1.00;;;;;;5066608;28;20071;-62
2023/07/21 08:44:55;;;;;;;2.08;1.10;;;21.40;1.00;;;;;;5067122;28;20037;-62
2023/07/21 08:47:22;;;;;;;;;;;21.80;1.00;;;;;;5068357;28;20431;-62
2023/07/21 08:49:48;;;;;;;1.13;0.70;;;22.10;1.00;;;;;;5081304;28;19965;-62
2023/07/21 08:52:15;;;;;;;0.30;0.30;;;22.40;1.00;;;;;;5071567;28;20044;-62
2023/07/21 08:54:43;;;;;;;0.40;0.40;;;22.40;1.00;;;;;;5078424;28;20046;-62
2023/07/21 08:57:10;;;;;;;1.77;0.90;;;22.30;1.00;;;;;;5074655;28;20128;-63
2023/07/21 08:59:36;;;;;;;2.60;0.60;;;22.30;1.00;;;;;;5083939;28;20411;-62
2023/07/21 09:02:02;;;;;;;0.65;0.52;;;22.40;1.00;;;;;;5081991;28;20048;-63
2023/07/21 09:04:28;;;;;;;4.47;0.50;;;22.70;1.00;;;;;;5067655;28;20071;-63
2023/07/21 09:06:58;;;;;;;0.47;0.47;;;22.80;1.00;;;;;;5068582;28;20055;-63
2023/07/21 09:09:27;;;;;;;3.10;0.65;;;23.00;1.00;;;;;;5067723;28;20037;-63
2023/07/21 09:12:04;;;;;;;1.55;0.82;;;23.10;1.00;;;;;;5057265;28;20325;-63
2023/07/21 09:14:47;;;;;;;0.57;0.57;;;22.80;1.00;;;;;;5068550;28;20043;-62
2023/07/21 09:17:15;;;;;;;0.85;0.60;;;22.30;1.00;;;;;;5077089;28;20058;-62
2023/07/21 09:19:45;;;;;;;0.47;0.47;;;22.00;1.00;;;;;;5068397;28;20090;-63
2023/07/21 09:22:11;;;;;;;2.50;1.05;;;21.80;1.00;;;;;;5077981;28;20051;-62
2023/07/21 09:24:48;;;;;;;0.70;0.70;;;21.70;1.00;;;;;;5071234;28;20131;-63
2023/07/21 09:27:16;;;;;;;2.55;0.90;;;21.60;1.00;;;;;;5070343;28;20519;-63
2023/07/21 09:29:43;;;;;;;0.85;0.70;;;21.50;1.00;;;;;;5067257;28;20040;-62
2023/07/21 09:32:16;;;;;;;1.08;0.43;;;21.20;1.00;;;;;;5069668;28;20044;-62
2023/07/21 09:35:12;;;;;;;0.52;0.52;;;21.10;1.00;;;;;;5069067;28;20489;-63
2023/07/21 09:37:38;;;;;;;2.30;0.47;;;20.90;1.00;;;;;;5050683;28;20052;-63
2023/07/21 09:40:09;;;;;;;0.50;0.47;;;21.10;1.00;;;;;;5069417;28;20134;-63
2023/07/21 09:42:36;;;;;;;0.47;0.40;;;21.30;1.00;;;;;;5075111;28;20119;-61
2023/07/21 09:45:01;;;;;;;2.20;0.40;;;21.50;1.00;;;;;;5068968;28;20052;-62
2023/07/21 09:47:27;;;;;;;1.27;0.40;;;21.60;1.00;;;;;;5065298;28;20059;-63
2023/07/21 09:49:55;;;;;;;1.38;0.55;;;21.80;1.00;;;;;;5068252;28;20040;-62
2023/07/21 09:52:22;;;;;;;0.52;0.52;;;22.00;1.00;;;;;;5079170;28;20032;-63
2023/07/21 09:54:55;;;;;;;1.55;1.38;;;22.10;1.00;;;;;;5071768;28;20044;-63
2023/07/21 09:57:25;;;;;;;1.00;0.60;;;22.10;1.00;;;;;;5075646;28;20056;-63
2023/07/21 09:59:58;;;;;;;0.82;0.60;;;21.90;1.00;;;;;;5048625;28;20079;-63
2023/07/21 10:02:25;;;;;;;0.55;0.55;;;21.90;1.00;;;;;;5074569;28;20051;-63
2023/07/21 10:04:51;;;;;;;0.50;0.50;;;21.80;1.00;;;;;;5083812;28;20387;-63
2023/07/21 10:07:19;;;;;;;0.57;0.57;;;21.70;1.00;;;;;;5072745;28;20063;-62
2023/07/21 10:09:47;;;;;;;6.18;1.70;;;21.80;1.00;;;;;;5056336;28;20040;-63
2023/07/21 10:12:18;;;;;;;0.65;0.50;;;22.00;1.00;;;;;;5081284;28;20167;-63
2023/07/21 10:14:47;;;;;;;0.85;0.63;;;22.30;1.00;;;;;;5082882;28;20601;-63
2023/07/21 10:17:23;;;;;;;1.92;0.47;;;22.30;1.00;;;;;;5072977;28;20059;-63
2023/07/21 10:20:07;;;;;;;0.52;0.50;;;22.20;1.00;;;;;;5073488;28;20036;-63
2023/07/21 10:22:33;;;;;;;1.70;0.98;;;22.30;1.00;;;;;;5072722;28;20036;-63
2023/07/21 10:25:00;;;;;;;0.60;0.57;;;22.20;1.00;;;;;;5072861;28;20044;-63
2023/07/21 10:27:27;;;;;;;0.80;0.47;;;22.10;1.00;;;;;;5065152;28;20399;-63
2023/07/21 10:29:56;;;;;;;0.90;0.57;;;22.00;1.00;;;;;;5066736;28;20044;-62
2023/07/21 10:32:24;;;;;;;0.40;0.40;;;22.00;1.00;;;;;;5073105;28;20037;-63
2023/07/21 10:34:52;;;;;;;0.68;0.63;;;21.90;1.00;;;;;;5072492;28;20443;-63
2023/07/21 10:37:18;;;;;;;0.90;0.90;;;21.70;1.00;;;;;;5070456;28;20091;-63
2023/07/21 10:39:54;;;;;;;0.70;0.70;;;21.50;1.00;;;;;;5065835;28;20495;-62
2023/07/21 10:42:20;;;;;;;1.13;0.40;;;21.30;1.00;;;;;;5048686;28;20052;-63
2023/07/21 10:44:47;;;;;;;1.33;0.70;;;21.20;1.00;;;;;;5066196;28;20049;-62
2023/07/21 10:47:20;;;;;;;0.75;0.65;;;21.30;1.00;;;;;;5074807;28;20048;-63
2023/07/21 10:49:48;;;;;;;0.50;0.50;;;21.30;1.00;;;;;;5084461;28;20530;-63
2023/07/21 10:52:15;;;;;;;0.45;0.45;;;21.40;1.00;;;;;;5077311;28;20493;-63
2023/07/21 10:54:40;;;;;;;0.55;0.55;;;21.50;1.00;;;;;;5066830;28;20064;-63
2023/07/21 10:57:08;;;;;;;0.90;0.60;;;21.50;1.00;;;;;;5071868;28;20095;-63
2023/07/21 10:59:36;;;;;;;1.50;0.52;;;21.40;1.00;;;;;;5066848;28;20047;-63
2023/07/21 11:02:08;;;;;;;2.13;0.40;;;21.40;1.00;;;;;;5072862;28;20048;-63
2023/07/21 11:04:35;;;;;;;1.27;0.60;;;21.20;1.00;;;;;;5064967;28;20048;-63
2023/07/21 11:07:01;;;;;;;1.10;0.70;;;21.00;1.00;;;;;;5071104;28;20190;-63
2023/07/21 11:09:33;;;;;;;0.68;0.68;;;20.90;1.00;;;;;;5065197;28;20129;-63
2023/07/21 11:11:59;;;;;;;0.30;0.30;;;20.90;1.00;;;;;;5077240;28;20078;-63
2023/07/21 11:14:27;;;;;;;0.80;0.50;;;20.80;1.00;;;;;;5066215;28;20037;-63
2023/07/21 11:16:59;;;;;;;0.50;0.50;;;20.70;1.00;;;;;;5069799;28;20052;-63
2023/07/21 11:19:27;;;;;;;2.25;0.47;;;20.60;1.00;;;;;;5075993;28;20360;-63
2023/07/21 11:21:54;;;;;;;0.70;0.67;;;20.60;1.00;;;;;;5075977;28;20048;-62
2023/07/21 11:24:23;;;;;;;3.10;0.77;;;20.60;1.00;;;;;;5071092;28;20114;-63
2023/07/21 11:26:49;;;;;;;1.92;0.70;;;20.60;1.00;;;;;;5071379;28;20037;-63
2023/07/21 11:29:16;;;;;;;0.50;0.50;;;20.60;1.00;;;;;;5082913;28;20048;-62
2023/07/21 11:31:43;;;;;;;1.33;1.17;;;20.50;1.00;;;;;;5077901;28;20510;-62
2023/07/21 11:34:26;;;;;;;0.70;0.70;;;20.50;1.00;;;;;;5080820;28;20059;-62
2023/07/21 11:36:58;;;;;;;0.88;0.60;;;20.40;1.00;;;;;;5077506;28;20093;-62
2023/07/21 11:39:24;;;;;;;2.20;0.75;;;20.30;1.00;;;;;;5077482;28;20044;-62
2023/07/21 11:41:53;;;;;;;0.40;0.40;;;20.20;1.00;;;;;;5070273;28;20109;-63
2023/07/21 11:44:19;;;;;;;;;;;20.10;1.00;;;;;;5067667;28;20047;-63
2023/07/21 11:46:56;;;;;;;0.50;0.50;;;20.00;1.00;;;;;;5070182;28;19950;-63
2023/07/21 11:49:26;;;;;;;3.03;0.75;;;20.00;1.00;;;;;;5074476;28;20563;-63
2023/07/21 11:51:53;;;;;;;0.68;0.68;;;20.10;1.00;;;;;;5069535;28;20713;-63
2023/07/21 11:54:29;;;;;;;0.50;0.47;;;20.20;1.00;;;;;;5075176;28;20050;-62
2023/07/21 11:56:57;;;;;;;0.65;0.40;;;20.40;1.00;;;;;;5080984;28;20036;-63
2023/07/21 11:59:24;;;;;;;0.75;0.75;;;20.50;1.00;;;;;;5086772;28;20037;-63
2023/07/21 12:01:51;;;;;;;0.82;0.70;;;20.60;1.00;;;;;;5078713;28;20430;-63
2023/07/21 12:04:21;;;;;;;0.80;0.50;;;20.60;1.00;;;;;;5065967;28;20093;-63
2023/07/21 12:06:48;;;;;;;4.03;0.80;;;20.80;1.00;;;;;;5080456;28;20101;-62
2023/07/21 12:09:14;;;;;;;2.55;0.80;;;21.00;1.00;;;;;;5082425;28;20097;-63
2023/07/21 12:11:40;;;;;;;0.60;0.60;;;21.10;1.00;;;;;;5088802;28;20047;-68
2023/07/21 12:14:06;;;;;;;0.98;0.68;;;21.20;1.00;;;;;;5088900;28;20515;-63
2023/07/21 12:16:34;;;;;;;1.08;0.88;;;21.10;1.00;;;;;;5085720;28;20048;-63
2023/07/21 12:19:00;;;;;;;5.35;0.60;;;21.00;1.00;;;;;;5071389;28;20043;-63
2023/07/21 12:21:26;;;;;;;1.65;0.75;;;20.70;1.00;;;;;;5089082;28;20048;-63
2023/07/21 12:23:52;;;;;;;0.60;0.60;;;20.40;1.00;;;;;;5076757;28;20044;-63
2023/07/21 12:26:19;;;;;;;1.75;0.90;;;19.90;1.00;;;;;;5081406;28;20055;-62
2023/07/21 12:28:50;;;;;;;0.90;0.70;;;19.60;1.00;;;;;;5079125;28;20044;-62
2023/07/21 12:31:17;;;;;;;1.02;0.70;;;19.30;1.00;;;;;;5080884;28;20045;-62
2023/07/21 12:33:44;;;;;;;0.88;0.88;;;19.20;1.60;;;;;;5079063;28;20037;-63
2023/07/21 12:36:13;;;;;;;3.13;0.85;;;19.10;3.00;;;;;;5068106;28;20071;-63
2023/07/21 12:38:39;;;;;;;0.80;0.80;;;19.00;2.80;;;;;;5067380;28;20567;-63
2023/07/21 12:41:05;;;;;;;1.77;1.02;;;19.10;8.00;;;;;;5080944;28;20105;-63
2023/07/21 12:43:31;;;;;;;4.43;1.20;;;19.20;21.50;;;;;;5082835;28;20080;-63
2023/07/21 12:45:57;;;;;;;2.40;1.30;;;19.10;23.80;;;;;;5050822;28;20069;-63
2023/07/21 12:48:23;;;;;;;2.35;1.27;;;18.80;24.70;;;;;;5067626;28;20147;-64
2023/07/21 12:50:49;;;;;;;3.15;1.50;;;18.40;28.60;;;;;;5085423;28;20058;-63